sensor_id;sensor_type;location;lat;lon;timestamp;P1;durP1;ratioP1;P2;durP2;ratioP2
44181;SDS011;30436;48.888;9.202;2022-10-31T00:01:14;12.77;;;6.83;;
44181;SDS011;30436;48.888;9.202;2022-10-31T00:03:42;11.73;;;7.63;;
44181;SDS011;30436;48.888;9.202;2022-10-31T00:06:07;11.07;;;6.93;;
44181;SDS011;30436;48.888;9.202;2022-10-31T00:08:33;12.87;;;6.83;;
44181;SDS011;30436;48.888;9.202;2022-10-31T00:10:59;13.63;;;7.57;;
44181;SDS011;30436;48.888;9.202;2022-10-31T00:13:24;12.37;;;7.70;;
44181;SDS011;30436;48.888;9.202;2022-10-31T00:15:50;9.70;;;6.50;;
44181;SDS011;30436;48.888;9.202;2022-10-31T00:18:16;11.30;;;6.90;;
44181;SDS011;30436;48.888;9.202;2022-10-31T00:20:41;14.90;;;7.80;;
44181;SDS011;30436;48.888;9.202;2022-10-31T00:23:07;13.60;;;7.10;;
44181;SDS011;30436;48.888;9.202;2022-10-31T00:25:35;13.67;;;7.47;;
44181;SDS011;30436;48.888;9.202;2022-10-31T00:28:06;11.63;;;6.80;;
44181;SDS011;30436;48.888;9.202;2022-10-31T00:30:34;9.97;;;6.63;;
44181;SDS011;30436;48.888;9.202;2022-10-31T00:33:00;10.73;;;6.43;;
44181;SDS011;30436;48.888;9.202;2022-10-31T00:35:27;8.90;;;6.50;;
44181;SDS011;30436;48.888;9.202;2022-10-31T00:37:53;11.80;;;6.93;;
44181;SDS011;30436;48.888;9.202;2022-10-31T00:40:19;14.23;;;7.10;;
44181;SDS011;30436;48.888;9.202;2022-10-31T00:42:44;12.10;;;7.27;;
44181;SDS011;30436;48.888;9.202;2022-10-31T00:45:10;14.07;;;7.47;;
44181;SDS011;30436;48.888;9.202;2022-10-31T00:47:36;13.70;;;6.67;;
44181;SDS011;30436;48.888;9.202;2022-10-31T00:50:03;12.23;;;7.17;;
44181;SDS011;30436;48.888;9.202;2022-10-31T00:52:29;9.63;;;5.90;;
44181;SDS011;30436;48.888;9.202;2022-10-31T00:54:56;11.17;;;6.43;;
44181;SDS011;30436;48.888;9.202;2022-10-31T00:57:22;12.00;;;6.53;;
44181;SDS011;30436;48.888;9.202;2022-10-31T00:59:47;13.17;;;6.37;;
44181;SDS011;30436;48.888;9.202;2022-10-31T01:02:13;10.23;;;6.47;;
44181;SDS011;30436;48.888;9.202;2022-10-31T01:04:39;16.17;;;6.40;;
44181;SDS011;30436;48.888;9.202;2022-10-31T01:07:04;9.53;;;6.50;;
44181;SDS011;30436;48.888;9.202;2022-10-31T01:09:30;12.03;;;7.00;;
44181;SDS011;30436;48.888;9.202;2022-10-31T01:11:58;11.13;;;6.47;;
44181;SDS011;30436;48.888;9.202;2022-10-31T01:14:23;11.97;;;6.03;;
44181;SDS011;30436;48.888;9.202;2022-10-31T01:16:49;11.17;;;6.17;;
44181;SDS011;30436;48.888;9.202;2022-10-31T01:19:15;15.77;;;6.47;;
44181;SDS011;30436;48.888;9.202;2022-10-31T01:21:40;9.83;;;6.20;;
44181;SDS011;30436;48.888;9.202;2022-10-31T01:24:06;13.83;;;7.30;;
44181;SDS011;30436;48.888;9.202;2022-10-31T01:26:36;11.17;;;6.60;;
44181;SDS011;30436;48.888;9.202;2022-10-31T01:29:06;10.33;;;6.10;;
44181;SDS011;30436;48.888;9.202;2022-10-31T01:31:35;14.20;;;6.70;;
44181;SDS011;30436;48.888;9.202;2022-10-31T01:34:02;9.97;;;7.13;;
44181;SDS011;30436;48.888;9.202;2022-10-31T01:36:30;12.73;;;7.33;;
44181;SDS011;30436;48.888;9.202;2022-10-31T01:38:59;14.63;;;6.87;;
44181;SDS011;30436;48.888;9.202;2022-10-31T01:41:29;12.40;;;6.63;;
44181;SDS011;30436;48.888;9.202;2022-10-31T01:43:57;12.60;;;6.17;;
44181;SDS011;30436;48.888;9.202;2022-10-31T01:46:32;10.87;;;5.80;;
44181;SDS011;30436;48.888;9.202;2022-10-31T01:49:03;10.97;;;6.50;;
44181;SDS011;30436;48.888;9.202;2022-10-31T01:51:34;11.50;;;6.83;;
44181;SDS011;30436;48.888;9.202;2022-10-31T01:54:04;11.03;;;6.70;;
44181;SDS011;30436;48.888;9.202;2022-10-31T01:56:37;11.13;;;6.27;;
44181;SDS011;30436;48.888;9.202;2022-10-31T01:59:06;13.37;;;6.67;;
44181;SDS011;30436;48.888;9.202;2022-10-31T02:01:36;13.33;;;6.30;;
44181;SDS011;30436;48.888;9.202;2022-10-31T02:04:02;10.50;;;5.87;;
44181;SDS011;30436;48.888;9.202;2022-10-31T02:06:35;10.07;;;5.83;;
44181;SDS011;30436;48.888;9.202;2022-10-31T02:09:03;10.43;;;5.77;;
44181;SDS011;30436;48.888;9.202;2022-10-31T02:11:30;8.67;;;5.83;;
44181;SDS011;30436;48.888;9.202;2022-10-31T02:13:58;10.80;;;5.60;;
44181;SDS011;30436;48.888;9.202;2022-10-31T02:16:26;13.70;;;5.77;;
44181;SDS011;30436;48.888;9.202;2022-10-31T02:18:52;10.23;;;5.50;;
44181;SDS011;30436;48.888;9.202;2022-10-31T02:26:44;9.93;;;6.20;;
44181;SDS011;30436;48.888;9.202;2022-10-31T02:32:33;12.70;;;5.70;;
44181;SDS011;30436;48.888;9.202;2022-10-31T02:37:37;13.33;;;6.03;;
44181;SDS011;30436;48.888;9.202;2022-10-31T02:40:26;12.37;;;5.90;;
44181;SDS011;30436;48.888;9.202;2022-10-31T02:43:13;10.57;;;5.77;;
44181;SDS011;30436;48.888;9.202;2022-10-31T02:45:50;10.27;;;5.47;;
44181;SDS011;30436;48.888;9.202;2022-10-31T02:48:19;15.17;;;6.13;;
44181;SDS011;30436;48.888;9.202;2022-10-31T02:50:50;7.80;;;5.30;;
44181;SDS011;30436;48.888;9.202;2022-10-31T02:53:20;11.13;;;6.17;;
44181;SDS011;30436;48.888;9.202;2022-10-31T02:55:51;10.77;;;5.93;;
44181;SDS011;30436;48.888;9.202;2022-10-31T02:58:26;8.27;;;5.63;;
44181;SDS011;30436;48.888;9.202;2022-10-31T03:14:41;10.33;;;5.83;;
44181;SDS011;30436;48.888;9.202;2022-10-31T03:17:27;9.03;;;5.57;;
44181;SDS011;30436;48.888;9.202;2022-10-31T03:20:01;9.57;;;5.80;;
44181;SDS011;30436;48.888;9.202;2022-10-31T03:22:31;9.47;;;5.53;;
44181;SDS011;30436;48.888;9.202;2022-10-31T03:24:58;9.63;;;5.73;;
44181;SDS011;30436;48.888;9.202;2022-10-31T03:27:27;11.57;;;6.10;;
44181;SDS011;30436;48.888;9.202;2022-10-31T03:29:58;9.47;;;5.27;;
44181;SDS011;30436;48.888;9.202;2022-10-31T03:35:21;10.17;;;5.47;;
44181;SDS011;30436;48.888;9.202;2022-10-31T03:37:49;10.57;;;5.77;;
44181;SDS011;30436;48.888;9.202;2022-10-31T03:40:18;10.07;;;5.63;;
44181;SDS011;30436;48.888;9.202;2022-10-31T03:42:51;9.43;;;6.10;;
44181;SDS011;30436;48.888;9.202;2022-10-31T03:45:21;9.10;;;5.57;;
44181;SDS011;30436;48.888;9.202;2022-10-31T03:47:50;9.80;;;6.03;;
44181;SDS011;30436;48.888;9.202;2022-10-31T03:50:18;11.83;;;6.03;;
44181;SDS011;30436;48.888;9.202;2022-10-31T03:52:57;12.97;;;5.90;;
44181;SDS011;30436;48.888;9.202;2022-10-31T03:55:55;11.40;;;5.53;;
44181;SDS011;30436;48.888;9.202;2022-10-31T03:58:30;14.13;;;5.93;;
44181;SDS011;30436;48.888;9.202;2022-10-31T04:01:05;9.60;;;5.70;;
44181;SDS011;30436;48.888;9.202;2022-10-31T04:03:35;10.17;;;6.20;;
44181;SDS011;30436;48.888;9.202;2022-10-31T04:06:05;13.93;;;5.80;;
44181;SDS011;30436;48.888;9.202;2022-10-31T04:08:51;9.97;;;5.67;;
44181;SDS011;30436;48.888;9.202;2022-10-31T04:11:25;11.07;;;5.53;;
44181;SDS011;30436;48.888;9.202;2022-10-31T04:14:14;8.53;;;5.37;;
44181;SDS011;30436;48.888;9.202;2022-10-31T04:16:41;11.40;;;5.30;;
44181;SDS011;30436;48.888;9.202;2022-10-31T04:19:10;8.67;;;5.67;;
44181;SDS011;30436;48.888;9.202;2022-10-31T04:21:37;10.70;;;5.23;;
44181;SDS011;30436;48.888;9.202;2022-10-31T04:24:02;8.83;;;5.30;;
44181;SDS011;30436;48.888;9.202;2022-10-31T04:26:29;8.93;;;5.17;;
44181;SDS011;30436;48.888;9.202;2022-10-31T04:28:56;9.40;;;5.10;;
44181;SDS011;30436;48.888;9.202;2022-10-31T04:31:21;9.90;;;4.97;;
44181;SDS011;30436;48.888;9.202;2022-10-31T04:33:48;10.23;;;5.13;;
44181;SDS011;30436;48.888;9.202;2022-10-31T04:36:14;11.50;;;5.53;;
44181;SDS011;30436;48.888;9.202;2022-10-31T04:38:40;8.93;;;5.00;;
44181;SDS011;30436;48.888;9.202;2022-10-31T04:41:17;11.30;;;5.30;;
44181;SDS011;30436;48.888;9.202;2022-10-31T04:43:57;11.70;;;5.73;;
44181;SDS011;30436;48.888;9.202;2022-10-31T04:46:24;8.33;;;5.23;;
44181;SDS011;30436;48.888;9.202;2022-10-31T04:48:49;9.40;;;5.47;;
44181;SDS011;30436;48.888;9.202;2022-10-31T04:51:16;9.60;;;5.27;;
44181;SDS011;30436;48.888;9.202;2022-10-31T04:53:41;8.40;;;4.93;;
44181;SDS011;30436;48.888;9.202;2022-10-31T04:56:26;10.20;;;5.27;;
44181;SDS011;30436;48.888;9.202;2022-10-31T04:58:56;10.53;;;5.33;;
44181;SDS011;30436;48.888;9.202;2022-10-31T05:01:24;11.47;;;5.30;;
44181;SDS011;30436;48.888;9.202;2022-10-31T05:03:49;7.47;;;4.90;;
44181;SDS011;30436;48.888;9.202;2022-10-31T05:06:15;10.87;;;5.73;;
44181;SDS011;30436;48.888;9.202;2022-10-31T05:08:41;10.20;;;5.53;;
44181;SDS011;30436;48.888;9.202;2022-10-31T05:11:09;11.33;;;5.10;;
44181;SDS011;30436;48.888;9.202;2022-10-31T05:13:35;14.63;;;5.30;;
44181;SDS011;30436;48.888;9.202;2022-10-31T05:16:24;10.10;;;5.47;;
44181;SDS011;30436;48.888;9.202;2022-10-31T05:19:09;12.63;;;5.47;;
44181;SDS011;30436;48.888;9.202;2022-10-31T05:21:54;11.47;;;5.23;;
44181;SDS011;30436;48.888;9.202;2022-10-31T05:24:19;9.87;;;5.30;;
44181;SDS011;30436;48.888;9.202;2022-10-31T05:26:47;14.70;;;6.10;;
44181;SDS011;30436;48.888;9.202;2022-10-31T05:29:13;9.97;;;5.13;;
44181;SDS011;30436;48.888;9.202;2022-10-31T05:31:39;10.43;;;5.03;;
44181;SDS011;30436;48.888;9.202;2022-10-31T05:34:08;8.77;;;5.70;;
44181;SDS011;30436;48.888;9.202;2022-10-31T05:36:52;11.57;;;5.37;;
44181;SDS011;30436;48.888;9.202;2022-10-31T05:39:21;9.07;;;4.97;;
44181;SDS011;30436;48.888;9.202;2022-10-31T05:41:51;8.30;;;5.40;;
44181;SDS011;30436;48.888;9.202;2022-10-31T05:44:20;12.17;;;5.80;;
44181;SDS011;30436;48.888;9.202;2022-10-31T05:47:08;10.57;;;5.13;;
44181;SDS011;30436;48.888;9.202;2022-10-31T05:49:53;6.80;;;5.13;;
44181;SDS011;30436;48.888;9.202;2022-10-31T05:52:39;12.67;;;5.40;;
44181;SDS011;30436;48.888;9.202;2022-10-31T05:55:20;13.27;;;5.37;;
44181;SDS011;30436;48.888;9.202;2022-10-31T05:58:01;9.43;;;5.10;;
44181;SDS011;30436;48.888;9.202;2022-10-31T06:00:27;10.83;;;5.33;;
44181;SDS011;30436;48.888;9.202;2022-10-31T06:03:03;13.13;;;5.47;;
44181;SDS011;30436;48.888;9.202;2022-10-31T06:05:40;10.20;;;5.13;;
44181;SDS011;30436;48.888;9.202;2022-10-31T06:08:06;8.60;;;5.20;;
44181;SDS011;30436;48.888;9.202;2022-10-31T06:10:32;10.77;;;4.90;;
44181;SDS011;30436;48.888;9.202;2022-10-31T06:12:58;8.23;;;5.17;;
44181;SDS011;30436;48.888;9.202;2022-10-31T06:15:36;15.83;;;5.30;;
44181;SDS011;30436;48.888;9.202;2022-10-31T06:18:05;9.53;;;5.30;;
44181;SDS011;30436;48.888;9.202;2022-10-31T06:20:50;10.80;;;4.97;;
44181;SDS011;30436;48.888;9.202;2022-10-31T06:23:16;8.73;;;4.80;;
44181;SDS011;30436;48.888;9.202;2022-10-31T06:25:47;8.27;;;4.80;;
44181;SDS011;30436;48.888;9.202;2022-10-31T06:28:14;10.13;;;5.43;;
44181;SDS011;30436;48.888;9.202;2022-10-31T06:30:55;11.50;;;5.30;;
44181;SDS011;30436;48.888;9.202;2022-10-31T06:33:22;11.60;;;4.70;;
44181;SDS011;30436;48.888;9.202;2022-10-31T06:35:56;9.57;;;4.80;;
44181;SDS011;30436;48.888;9.202;2022-10-31T06:38:22;7.03;;;4.40;;
44181;SDS011;30436;48.888;9.202;2022-10-31T06:40:48;8.00;;;4.57;;
44181;SDS011;30436;48.888;9.202;2022-10-31T06:43:20;9.57;;;5.33;;
44181;SDS011;30436;48.888;9.202;2022-10-31T06:45:46;6.93;;;4.50;;
44181;SDS011;30436;48.888;9.202;2022-10-31T06:48:24;8.60;;;4.93;;
44181;SDS011;30436;48.888;9.202;2022-10-31T06:51:25;8.77;;;4.43;;
44181;SDS011;30436;48.888;9.202;2022-10-31T06:53:51;7.93;;;4.70;;
44181;SDS011;30436;48.888;9.202;2022-10-31T06:56:17;10.47;;;5.07;;
44181;SDS011;30436;48.888;9.202;2022-10-31T06:58:50;9.03;;;4.57;;
44181;SDS011;30436;48.888;9.202;2022-10-31T07:01:24;9.60;;;4.90;;
44181;SDS011;30436;48.888;9.202;2022-10-31T07:03:50;10.90;;;4.77;;
44181;SDS011;30436;48.888;9.202;2022-10-31T07:06:15;8.30;;;4.43;;
44181;SDS011;30436;48.888;9.202;2022-10-31T07:08:41;8.27;;;4.63;;
44181;SDS011;30436;48.888;9.202;2022-10-31T07:11:07;17.57;;;5.17;;
44181;SDS011;30436;48.888;9.202;2022-10-31T07:13:33;10.03;;;5.03;;
44181;SDS011;30436;48.888;9.202;2022-10-31T07:16:06;8.70;;;4.83;;
44181;SDS011;30436;48.888;9.202;2022-10-31T07:18:34;10.43;;;4.47;;
44181;SDS011;30436;48.888;9.202;2022-10-31T07:21:01;11.17;;;4.70;;
44181;SDS011;30436;48.888;9.202;2022-10-31T07:23:26;10.17;;;4.73;;
44181;SDS011;30436;48.888;9.202;2022-10-31T07:26:10;11.10;;;5.03;;
44181;SDS011;30436;48.888;9.202;2022-10-31T07:28:42;6.67;;;5.03;;
44181;SDS011;30436;48.888;9.202;2022-10-31T07:31:08;7.57;;;4.67;;
44181;SDS011;30436;48.888;9.202;2022-10-31T07:33:35;7.60;;;4.90;;
44181;SDS011;30436;48.888;9.202;2022-10-31T07:36:36;11.07;;;4.73;;
44181;SDS011;30436;48.888;9.202;2022-10-31T07:39:03;8.20;;;4.63;;
44181;SDS011;30436;48.888;9.202;2022-10-31T07:41:30;7.60;;;4.43;;
44181;SDS011;30436;48.888;9.202;2022-10-31T07:43:56;5.70;;;4.30;;
44181;SDS011;30436;48.888;9.202;2022-10-31T07:46:45;13.83;;;5.30;;
44181;SDS011;30436;48.888;9.202;2022-10-31T07:49:29;10.57;;;4.70;;
44181;SDS011;30436;48.888;9.202;2022-10-31T07:52:20;8.57;;;5.00;;
44181;SDS011;30436;48.888;9.202;2022-10-31T07:54:46;9.57;;;4.63;;
44181;SDS011;30436;48.888;9.202;2022-10-31T07:57:11;10.33;;;5.07;;
44181;SDS011;30436;48.888;9.202;2022-10-31T07:59:37;15.23;;;5.33;;
44181;SDS011;30436;48.888;9.202;2022-10-31T08:02:05;9.07;;;4.87;;
44181;SDS011;30436;48.888;9.202;2022-10-31T08:04:30;9.40;;;5.00;;
44181;SDS011;30436;48.888;9.202;2022-10-31T08:07:14;8.17;;;4.50;;
44181;SDS011;30436;48.888;9.202;2022-10-31T08:09:45;7.97;;;4.37;;
44181;SDS011;30436;48.888;9.202;2022-10-31T08:12:18;9.53;;;4.87;;
44181;SDS011;30436;48.888;9.202;2022-10-31T08:14:44;9.63;;;4.80;;
44181;SDS011;30436;48.888;9.202;2022-10-31T08:17:10;8.20;;;4.80;;
44181;SDS011;30436;48.888;9.202;2022-10-31T08:19:44;7.20;;;4.73;;
44181;SDS011;30436;48.888;9.202;2022-10-31T08:22:13;8.77;;;4.67;;
44181;SDS011;30436;48.888;9.202;2022-10-31T08:24:38;7.40;;;4.90;;
44181;SDS011;30436;48.888;9.202;2022-10-31T08:27:04;9.73;;;4.70;;
44181;SDS011;30436;48.888;9.202;2022-10-31T08:29:31;7.57;;;4.63;;
44181;SDS011;30436;48.888;9.202;2022-10-31T08:31:57;14.27;;;4.90;;
44181;SDS011;30436;48.888;9.202;2022-10-31T08:34:41;8.63;;;4.60;;
44181;SDS011;30436;48.888;9.202;2022-10-31T08:37:42;9.47;;;5.10;;
44181;SDS011;30436;48.888;9.202;2022-10-31T08:40:09;6.40;;;4.70;;
44181;SDS011;30436;48.888;9.202;2022-10-31T08:42:36;11.83;;;5.40;;
44181;SDS011;30436;48.888;9.202;2022-10-31T08:45:02;6.60;;;4.87;;
44181;SDS011;30436;48.888;9.202;2022-10-31T08:47:29;9.87;;;5.30;;
44181;SDS011;30436;48.888;9.202;2022-10-31T08:49:55;12.07;;;4.80;;
44181;SDS011;30436;48.888;9.202;2022-10-31T08:52:22;10.03;;;5.47;;
44181;SDS011;30436;48.888;9.202;2022-10-31T08:54:50;11.67;;;5.47;;
44181;SDS011;30436;48.888;9.202;2022-10-31T08:57:34;9.80;;;4.77;;
44181;SDS011;30436;48.888;9.202;2022-10-31T09:00:00;9.73;;;4.73;;
44181;SDS011;30436;48.888;9.202;2022-10-31T09:03:00;6.77;;;4.57;;
44181;SDS011;30436;48.888;9.202;2022-10-31T09:05:31;7.30;;;5.13;;
44181;SDS011;30436;48.888;9.202;2022-10-31T09:07:58;8.93;;;5.00;;
44181;SDS011;30436;48.888;9.202;2022-10-31T09:10:25;9.07;;;5.03;;
44181;SDS011;30436;48.888;9.202;2022-10-31T09:12:57;8.90;;;4.90;;
44181;SDS011;30436;48.888;9.202;2022-10-31T09:15:37;10.67;;;5.20;;
44181;SDS011;30436;48.888;9.202;2022-10-31T09:18:16;9.67;;;4.90;;
44181;SDS011;30436;48.888;9.202;2022-10-31T09:20:49;7.83;;;4.73;;
44181;SDS011;30436;48.888;9.202;2022-10-31T09:23:17;11.33;;;4.60;;
44181;SDS011;30436;48.888;9.202;2022-10-31T09:25:47;10.60;;;4.70;;
44181;SDS011;30436;48.888;9.202;2022-10-31T09:28:29;8.77;;;4.83;;
44181;SDS011;30436;48.888;9.202;2022-10-31T09:30:59;10.90;;;5.23;;
44181;SDS011;30436;48.888;9.202;2022-10-31T09:33:43;8.87;;;4.80;;
44181;SDS011;30436;48.888;9.202;2022-10-31T09:36:35;9.40;;;4.63;;
44181;SDS011;30436;48.888;9.202;2022-10-31T09:39:05;8.57;;;4.93;;
44181;SDS011;30436;48.888;9.202;2022-10-31T09:41:52;7.20;;;4.77;;
44181;SDS011;30436;48.888;9.202;2022-10-31T09:50:22;12.47;;;5.27;;
44181;SDS011;30436;48.888;9.202;2022-10-31T09:53:00;8.37;;;5.00;;
44181;SDS011;30436;48.888;9.202;2022-10-31T09:55:37;7.13;;;4.63;;
44181;SDS011;30436;48.888;9.202;2022-10-31T09:58:08;8.20;;;5.20;;
44181;SDS011;30436;48.888;9.202;2022-10-31T10:00:50;6.53;;;4.10;;
44181;SDS011;30436;48.888;9.202;2022-10-31T10:05:53;8.70;;;4.93;;
44181;SDS011;30436;48.888;9.202;2022-10-31T10:08:36;8.53;;;4.53;;
44181;SDS011;30436;48.888;9.202;2022-10-31T10:16:57;8.87;;;4.73;;
44181;SDS011;30436;48.888;9.202;2022-10-31T10:19:46;9.77;;;4.60;;
44181;SDS011;30436;48.888;9.202;2022-10-31T10:25:16;9.53;;;4.27;;
44181;SDS011;30436;48.888;9.202;2022-10-31T10:33:11;10.03;;;4.63;;
44181;SDS011;30436;48.888;9.202;2022-10-31T10:35:52;9.33;;;4.90;;
44181;SDS011;30436;48.888;9.202;2022-10-31T10:38:23;7.70;;;4.47;;
44181;SDS011;30436;48.888;9.202;2022-10-31T10:41:05;7.40;;;4.60;;
44181;SDS011;30436;48.888;9.202;2022-10-31T10:43:37;7.70;;;4.43;;
44181;SDS011;30436;48.888;9.202;2022-10-31T10:46:16;10.80;;;5.97;;
44181;SDS011;30436;48.888;9.202;2022-10-31T10:49:09;6.30;;;4.30;;
44181;SDS011;30436;48.888;9.202;2022-10-31T10:56:59;5.70;;;4.20;;
44181;SDS011;30436;48.888;9.202;2022-10-31T10:59:31;6.23;;;4.23;;
44181;SDS011;30436;48.888;9.202;2022-10-31T11:01:57;9.13;;;5.07;;
44181;SDS011;30436;48.888;9.202;2022-10-31T11:07:04;12.37;;;5.07;;
44181;SDS011;30436;48.888;9.202;2022-10-31T11:09:32;11.73;;;4.33;;
44181;SDS011;30436;48.888;9.202;2022-10-31T11:11:59;6.93;;;4.60;;
44181;SDS011;30436;48.888;9.202;2022-10-31T11:14:30;7.90;;;4.83;;
44181;SDS011;30436;48.888;9.202;2022-10-31T11:17:07;7.53;;;5.00;;
44181;SDS011;30436;48.888;9.202;2022-10-31T11:22:37;10.27;;;5.07;;
44181;SDS011;30436;48.888;9.202;2022-10-31T11:27:44;7.00;;;4.70;;
44181;SDS011;30436;48.888;9.202;2022-10-31T11:30:12;9.93;;;4.33;;
44181;SDS011;30436;48.888;9.202;2022-10-31T11:32:43;12.40;;;4.80;;
44181;SDS011;30436;48.888;9.202;2022-10-31T11:35:16;10.63;;;5.10;;
44181;SDS011;30436;48.888;9.202;2022-10-31T11:37:44;8.63;;;4.90;;
44181;SDS011;30436;48.888;9.202;2022-10-31T11:40:18;8.83;;;5.70;;
44181;SDS011;30436;48.888;9.202;2022-10-31T11:42:49;11.33;;;5.73;;
44181;SDS011;30436;48.888;9.202;2022-10-31T11:45:18;9.73;;;5.27;;
44181;SDS011;30436;48.888;9.202;2022-10-31T11:47:57;7.93;;;4.43;;
44181;SDS011;30436;48.888;9.202;2022-10-31T11:50:27;9.70;;;4.67;;
44181;SDS011;30436;48.888;9.202;2022-10-31T11:52:54;9.20;;;4.83;;
44181;SDS011;30436;48.888;9.202;2022-10-31T11:55:37;7.80;;;4.40;;
44181;SDS011;30436;48.888;9.202;2022-10-31T11:58:04;10.97;;;5.23;;
44181;SDS011;30436;48.888;9.202;2022-10-31T12:00:49;7.87;;;4.27;;
44181;SDS011;30436;48.888;9.202;2022-10-31T12:06:02;6.83;;;4.47;;
44181;SDS011;30436;48.888;9.202;2022-10-31T12:08:44;10.03;;;5.03;;
44181;SDS011;30436;48.888;9.202;2022-10-31T12:14:16;9.03;;;4.90;;
44181;SDS011;30436;48.888;9.202;2022-10-31T12:17:12;13.13;;;5.47;;
44181;SDS011;30436;48.888;9.202;2022-10-31T12:19:48;9.93;;;5.13;;
44181;SDS011;30436;48.888;9.202;2022-10-31T12:22:29;6.43;;;4.60;;
44181;SDS011;30436;48.888;9.202;2022-10-31T12:25:28;10.27;;;5.43;;
44181;SDS011;30436;48.888;9.202;2022-10-31T12:33:26;8.27;;;5.03;;
44181;SDS011;30436;48.888;9.202;2022-10-31T12:36:18;10.33;;;4.50;;
44181;SDS011;30436;48.888;9.202;2022-10-31T12:41:47;6.80;;;4.90;;
44181;SDS011;30436;48.888;9.202;2022-10-31T12:47:21;11.33;;;4.97;;
44181;SDS011;30436;48.888;9.202;2022-10-31T12:50:19;10.23;;;5.70;;
44181;SDS011;30436;48.888;9.202;2022-10-31T12:55:55;8.33;;;4.80;;
44181;SDS011;30436;48.888;9.202;2022-10-31T12:58:33;9.03;;;4.90;;
44181;SDS011;30436;48.888;9.202;2022-10-31T13:01:28;8.53;;;5.00;;
44181;SDS011;30436;48.888;9.202;2022-10-31T13:04:02;11.70;;;4.97;;
44181;SDS011;30436;48.888;9.202;2022-10-31T13:06:31;7.87;;;5.20;;
44181;SDS011;30436;48.888;9.202;2022-10-31T13:09:05;8.10;;;4.33;;
44181;SDS011;30436;48.888;9.202;2022-10-31T13:11:36;9.87;;;5.20;;
44181;SDS011;30436;48.888;9.202;2022-10-31T13:14:15;8.07;;;5.00;;
44181;SDS011;30436;48.888;9.202;2022-10-31T13:16:46;8.33;;;4.90;;
44181;SDS011;30436;48.888;9.202;2022-10-31T13:19:30;13.47;;;4.80;;
44181;SDS011;30436;48.888;9.202;2022-10-31T13:22:04;11.97;;;5.23;;
44181;SDS011;30436;48.888;9.202;2022-10-31T13:27:29;8.37;;;4.93;;
44181;SDS011;30436;48.888;9.202;2022-10-31T13:41:33;12.17;;;6.07;;
44181;SDS011;30436;48.888;9.202;2022-10-31T13:44:22;12.50;;;6.00;;
44181;SDS011;30436;48.888;9.202;2022-10-31T13:46:50;13.43;;;5.43;;
44181;SDS011;30436;48.888;9.202;2022-10-31T13:54:43;11.07;;;4.70;;
44181;SDS011;30436;48.888;9.202;2022-10-31T13:57:22;7.83;;;4.67;;
44181;SDS011;30436;48.888;9.202;2022-10-31T14:02:49;11.60;;;4.70;;
44181;SDS011;30436;48.888;9.202;2022-10-31T14:05:31;10.67;;;4.60;;
44181;SDS011;30436;48.888;9.202;2022-10-31T14:08:00;9.60;;;4.73;;
44181;SDS011;30436;48.888;9.202;2022-10-31T14:10:38;12.07;;;4.90;;
44181;SDS011;30436;48.888;9.202;2022-10-31T14:13:15;14.83;;;5.07;;
44181;SDS011;30436;48.888;9.202;2022-10-31T14:15:54;11.20;;;5.07;;
44181;SDS011;30436;48.888;9.202;2022-10-31T14:20:50;12.13;;;5.20;;
44181;SDS011;30436;48.888;9.202;2022-10-31T14:28:51;11.70;;;4.83;;
44181;SDS011;30436;48.888;9.202;2022-10-31T14:31:30;7.97;;;4.00;;
44181;SDS011;30436;48.888;9.202;2022-10-31T14:47:54;9.50;;;4.93;;
44181;SDS011;30436;48.888;9.202;2022-10-31T14:53:03;10.10;;;5.30;;
44181;SDS011;30436;48.888;9.202;2022-10-31T14:55:31;8.07;;;4.67;;
44181;SDS011;30436;48.888;9.202;2022-10-31T14:57:59;13.87;;;5.30;;
44181;SDS011;30436;48.888;9.202;2022-10-31T15:00:27;12.23;;;4.97;;
44181;SDS011;30436;48.888;9.202;2022-10-31T15:05:52;10.20;;;5.37;;
44181;SDS011;30436;48.888;9.202;2022-10-31T15:11:13;8.90;;;4.87;;
44181;SDS011;30436;48.888;9.202;2022-10-31T15:13:54;10.87;;;4.93;;
44181;SDS011;30436;48.888;9.202;2022-10-31T15:16:31;11.90;;;5.40;;
44181;SDS011;30436;48.888;9.202;2022-10-31T15:19:04;11.53;;;6.00;;
44181;SDS011;30436;48.888;9.202;2022-10-31T15:21:32;12.97;;;5.67;;
44181;SDS011;30436;48.888;9.202;2022-10-31T15:24:00;10.97;;;5.70;;
44181;SDS011;30436;48.888;9.202;2022-10-31T15:26:28;10.93;;;6.03;;
44181;SDS011;30436;48.888;9.202;2022-10-31T15:29:01;14.07;;;6.27;;
44181;SDS011;30436;48.888;9.202;2022-10-31T15:31:35;11.23;;;6.50;;
44181;SDS011;30436;48.888;9.202;2022-10-31T15:34:03;13.87;;;7.93;;
44181;SDS011;30436;48.888;9.202;2022-10-31T15:36:41;20.03;;;12.13;;
44181;SDS011;30436;48.888;9.202;2022-10-31T15:39:09;20.47;;;12.00;;
44181;SDS011;30436;48.888;9.202;2022-10-31T15:46:55;21.60;;;12.97;;
44181;SDS011;30436;48.888;9.202;2022-10-31T15:49:38;20.13;;;12.60;;
44181;SDS011;30436;48.888;9.202;2022-10-31T15:54:46;23.77;;;12.77;;
44181;SDS011;30436;48.888;9.202;2022-10-31T15:57:15;23.17;;;15.27;;
44181;SDS011;30436;48.888;9.202;2022-10-31T15:59:48;35.60;;;20.30;;
44181;SDS011;30436;48.888;9.202;2022-10-31T16:02:17;31.73;;;18.20;;
44181;SDS011;30436;48.888;9.202;2022-10-31T16:04:55;25.37;;;15.00;;
44181;SDS011;30436;48.888;9.202;2022-10-31T16:07:23;20.20;;;13.53;;
44181;SDS011;30436;48.888;9.202;2022-10-31T16:09:54;24.80;;;14.17;;
44181;SDS011;30436;48.888;9.202;2022-10-31T16:12:23;25.13;;;13.83;;
44181;SDS011;30436;48.888;9.202;2022-10-31T16:14:57;22.60;;;13.80;;
44181;SDS011;30436;48.888;9.202;2022-10-31T16:17:24;26.37;;;14.07;;
44181;SDS011;30436;48.888;9.202;2022-10-31T16:19:53;22.67;;;13.97;;
44181;SDS011;30436;48.888;9.202;2022-10-31T16:22:23;22.93;;;13.00;;
44181;SDS011;30436;48.888;9.202;2022-10-31T16:25:05;25.33;;;13.57;;
44181;SDS011;30436;48.888;9.202;2022-10-31T16:27:37;22.17;;;12.27;;
44181;SDS011;30436;48.888;9.202;2022-10-31T16:33:20;28.13;;;13.63;;
44181;SDS011;30436;48.888;9.202;2022-10-31T16:35:51;24.33;;;12.97;;
44181;SDS011;30436;48.888;9.202;2022-10-31T16:38:17;24.10;;;13.70;;
44181;SDS011;30436;48.888;9.202;2022-10-31T16:40:43;21.10;;;12.73;;
44181;SDS011;30436;48.888;9.202;2022-10-31T16:43:13;26.00;;;13.50;;
44181;SDS011;30436;48.888;9.202;2022-10-31T16:45:46;19.10;;;10.70;;
44181;SDS011;30436;48.888;9.202;2022-10-31T16:48:14;27.13;;;11.97;;
44181;SDS011;30436;48.888;9.202;2022-10-31T16:50:42;19.80;;;11.60;;
44181;SDS011;30436;48.888;9.202;2022-10-31T16:53:09;16.70;;;10.03;;
44181;SDS011;30436;48.888;9.202;2022-10-31T16:55:46;21.00;;;10.57;;
44181;SDS011;30436;48.888;9.202;2022-10-31T16:58:30;15.10;;;10.77;;
44181;SDS011;30436;48.888;9.202;2022-10-31T17:01:01;22.27;;;11.63;;
44181;SDS011;30436;48.888;9.202;2022-10-31T17:03:29;16.93;;;10.80;;
44181;SDS011;30436;48.888;9.202;2022-10-31T17:05:56;19.90;;;11.10;;
44181;SDS011;30436;48.888;9.202;2022-10-31T17:08:22;14.30;;;8.03;;
44181;SDS011;30436;48.888;9.202;2022-10-31T17:10:50;15.07;;;7.30;;
44181;SDS011;30436;48.888;9.202;2022-10-31T17:13:20;15.23;;;7.13;;
44181;SDS011;30436;48.888;9.202;2022-10-31T17:15:52;12.67;;;6.70;;
44181;SDS011;30436;48.888;9.202;2022-10-31T17:18:19;14.57;;;7.10;;
44181;SDS011;30436;48.888;9.202;2022-10-31T17:20:45;10.20;;;7.53;;
44181;SDS011;30436;48.888;9.202;2022-10-31T17:23:12;16.07;;;8.20;;
44181;SDS011;30436;48.888;9.202;2022-10-31T17:25:39;18.33;;;9.40;;
44181;SDS011;30436;48.888;9.202;2022-10-31T17:28:05;12.60;;;8.83;;
44181;SDS011;30436;48.888;9.202;2022-10-31T17:30:31;15.17;;;9.13;;
44181;SDS011;30436;48.888;9.202;2022-10-31T17:32:58;13.77;;;8.00;;
44181;SDS011;30436;48.888;9.202;2022-10-31T17:35:24;12.00;;;7.47;;